Date,TemperatureHighF,TemperatureAvgF,TemperatureLowF,DewpointHighF,DewpointAvgF,DewpointLowF,HumidityHigh,HumidityAvg,HumidityLow,PressureMaxIn,PressureMinIn,WindSpeedMaxMPH,WindSpeedAvgMPH,GustSpeedMaxMPH,PrecipitationSumIn
2013-1-1,24,19,12,18,13,7,83,79,71,30.37,30.30,4,0,10,0.02
2013-1-2,30,23,18,21,16,12,78,72,69,30.42,30.32,6,2,15,0.00
2013-1-3,34,25,19,21,17,13,79,72,53,30.52,30.40,9,1,20,0.00
2013-1-23,44,32,22,28,21,12,77,65,52,30.48,30.25,8,3,14,0.00
2013-1-24,34,22,13,22,14,7,77,72,59,30.49,30.17,10,4,21,0.00
2013-1-25,55,36,24,29,23,18,79,62,34,30.38,30.24,7,1,13,0.00
2013-1-26,62,42,29,35,28,22,79,61,35,30.28,30.01,10,2,18,0.00
2013-1-27,55,43,37,44,37,34,90,82,65,30.01,29.85,9,1,12,0.02
2013-1-28,40,35,30,38,32,26,92,88,81,29.96,29.74,13,1,22,0.00
2013-1-29,34,32,28,30,27,21,88,82,75,29.98,29.82,12,4,26,0.00
2013-1-30,39,28,18,22,16,10,81,63,37,30.11,29.98,18,5,35,0.00
2013-1-31,33,27,22,24,15,8,75,62,47,30.42,30.03,10,3,21,0.00
2013-2-1,56,35,20,34,24,14,84,67,36,30.37,30.12,13,3,22,0.00
2013-2-2,56,39,29,31,25,20,85,61,28,30.42,30.28,14,4,30,0.00
2013-2-3,52,37,24,28,22,17,76,57,34,30.42,29.98,12,2,23,0.00
2013-2-4,60,40,26,31,23,19,78,54,24,30.13,29.98,7,1,13,0.00
2013-2-5,63,42,27,32,25,19,75,53,29,30.21,30.03,7,2,16,0.00
2013-2-6,67,46,31,38,29,22,70,53,31,30.10,29.90,11,2,17,0.00
2013-2-7,59,44,34,31,24,15,77,49,23,30.30,30.10,10,2,20,0.00
2013-2-8,55,40,29,28,23,15,70,51,32,30.30,30.00,25,7,40,0.00
2013-2-9,59,43,33,39,27,17,90,56,36,30.01,29.56,19,7,34,0.21
2013-2-10,39,31,26,37,26,20,91,80,63,30.18,29.48,20,9,41,0.18
2013-2-11,42,29,19,22,17,12,80,63,41,30.30,30.19,9,2,14,0.00
2013-2-12,47,31,19,21,16,12,77,57,33,30.24,30.12,12,2,22,0.00
2013-2-13,56,38,24,28,22,16,75,56,33,30.14,30.00,12,4,24,0.00
2013-2-14,40,34,26,30,23,15,81,66,44,30.44,30.11,20,3,32,0.00
2013-2-15,37,26,17,21,14,11,82,65,40,30.47,30.42,10,3,27,0.00
2013-2-16,61,39,20,30,22,12,78,54,30,30.45,30.10,12,2,27,0.00
2013-2-17,67,43,26,31,22,18,72,48,18,30.10,29.68,18,2,40,0.00
2013-2-18,47,38,28,28,21,15,67,52,33,30.28,29.74,18,6,39,0.00
2013-2-19,44,29,20,23,15,5,71,57,37,30.39,30.24,10,3,17,0.00
2013-2-20,24,20,16,18,11,3,86,69,47,30.26,30.06,13,6,21,0.00
2013-2-21,20,19,16,16,14,11,85,81,78,30.09,30.01,12,4,16,0.00
2013-2-22,33,18,6,21,10,0,80,73,60,30.16,30.07,8,2,14,0.08
2013-2-23,42,25,12,31,18,5,83,76,62,30.10,29.88,6,1,12,0.00
2013-2-24,33,26,18,29,22,13,89,85,77,30.21,29.93,7,1,14,0.00
2013-2-25,40,31,22,32,26,17,89,82,69,30.21,30.06,6,1,14,0.13
2013-2-26,38,23,9,28,17,4,83,77,66,30.13,29.97,7,1,12,0.00
2013-2-27,35,31,24,27,24,18,87,76,69,30.33,30.13,10,4,18,0.00
2013-2-28,44,30,21,28,22,15,85,71,52,30.38,30.31,6,1,10,0.00
2013-3-1,42,33,28,32,27,23,87,78,62,30.43,30.33,7,1,14,0.00
2013-3-2,58,40,26,41,31,21,86,72,52,30.42,30.17,7,1,13,0.00
2013-3-3,58,44,34,42,35,29,82,70,51,30.17,29.77,6,1,10,0.00
2013-3-4,48,38,27,35,25,11,77,60,40,30.33,29.78,11,5,21,0.00
2013-3-5,45,32,22,19,15,12,66,51,30,30.47,30.33,10,4,18,0.00
2013-3-6,49,33,22,29,22,14,76,64,45,30.45,30.12,13,4,20,0.00
2013-3-7,53,37,26,34,27,21,83,69,47,30.18,30.10,13,4,16,0.00
2013-3-8,55,44,33,48,36,27,85,74,58,30.17,29.84,13,6,63,0.00
2013-3-9,53,42,31,50,38,27,90,84,78,30.05,29.71,21,10,44,0.00
2013-3-10,33,27,20,29,19,13,91,72,53,30.23,30.05,22,12,44,0.00
2013-3-11,52,33,18,32,22,12,82,66,40,30.22,30.04,12,4,22,0.00
2013-3-12,49,38,31,30,20,14,80,53,26,30.45,30.21,17,6,34,0.00
2013-3-13,68,45,29,38,24,14,60,47,27,30.45,30.27,14,2,23,0.00
2013-3-14,77,56,39,38,33,30,73,47,22,30.34,30.19,12,4,19,0.00
2013-3-15,82,58,38,39,33,29,73,43,16,30.19,29.90,14,5,29,0.00
2013-3-16,53,42,33,36,30,26,84,64,46,30.21,30.01,17,7,25,0.12
2013-3-17,46,35,30,40,31,27,91,86,75,30.16,29.74,16,5,27,0.04
2013-3-18,53,40,28,33,24,14,92,58,27,30.16,29.94,13,5,23,0.00
2013-3-19,54,39,28,25,18,14,62,44,26,30.44,30.15,16,3,28,0.00
2013-3-20,52,35,19,22,16,10,71,49,28,30.51,30.04,16,5,26,0.00
2013-3-21,51,38,28,29,22,16,81,52,38,30.05,29.84,16,8,26,0.00
2013-3-22,54,39,28,34,29,23,86,70,39,30.10,29.96,12,4,23,0.02
2013-3-23,35,30,25,31,26,18,87,84,74,30.30,30.07,15,4,28,0.14
2013-3-24,35,24,13,25,16,7,80,72,56,30.37,30.24,16,6,25,0.04
2013-3-25,36,24,14,19,14,8,77,66,47,30.46,30.37,15,6,26,0.00
2013-3-26,51,31,13,30,19,6,76,63,42,30.45,30.18,15,4,26,0.00
2013-3-27,60,43,32,39,30,26,80,64,39,30.29,30.17,8,2,16,0.00
2013-3-28,69,49,32,39,32,25,78,55,31,30.31,30.19,15,3,24,0.00
2013-3-29,72,54,39,48,38,29,72,58,34,30.29,30.10,20,5,31,0.00
2013-3-30,69,54,42,46,40,35,84,63,33,30.26,30.10,16,4,23,0.02
2013-3-31,71,50,35,41,34,27,87,60,25,30.26,30.02,20,5,34,0.00
2013-4-1,56,42,33,35,28,24,75,58,38,30.41,30.22,18,5,30,0.00
2013-4-2,54,43,34,30,25,22,68,51,35,30.37,30.30,12,4,20,0.00
2013-4-3,58,44,36,32,28,24,73,54,35,30.38,30.29,18,6,34,0.00
2013-4-4,71,48,31,45,33,24,82,61,35,30.32,30.19,9,3,15,0.00
2013-4-5,79,59,42,40,35,31,70,44,23,30.21,29.78,23,7,39,0.00
2013-4-6,73,62,49,41,36,30,63,40,22,30.00,29.79,17,8,35,0.00
2013-4-7,71,57,47,56,42,29,86,59,39,30.00,29.80,10,3,19,0.02
2013-4-8,70,56,41,57,48,35,90,76,59,29.85,29.58,27,6,45,0.06
2013-4-9,50,27,20,46,24,15,91,87,83,30.29,29.69,24,12,43,1.17
2013-4-10,28,24,20,22,19,15,86,80,75,30.27,30.10,18,10,34,0.00
2013-4-11,44,32,22,31,24,17,86,73,58,30.11,29.90,16,7,28,0.02
2013-4-12,55,39,29,38,31,23,86,73,46,30.17,30.03,15,4,30,0.00
2013-4-13,69,48,30,47,37,26,91,69,40,30.19,29.55,26,8,35,0.00
2013-4-14,57,52,43,45,31,16,82,48,22,29.93,29.43,24,11,45,0.00
2013-4-15,53,42,35,33,25,21,63,52,42,30.18,29.91,13,5,22,0.00
2013-4-16,46,40,34,30,27,25,77,63,51,30.31,30.15,18,8,29,0.00
2013-4-17,40,35,28,30,28,24,89,78,59,30.22,30.04,23,9,44,0.00
2013-4-18,35,30,26,27,23,19,90,77,62,30.25,30.12,21,10,35,0.04
2013-4-19,57,40,24,36,28,18,80,64,43,30.22,30.12,18,7,30,0.00
2013-4-20,62,45,33,39,32,26,76,61,41,30.19,30.09,20,8,33,0.00
2013-4-21,70,52,35,45,37,30,86,60,33,30.20,30.11,18,3,32,0.00
2013-4-22,51,39,30,42,35,24,93,86,72,30.45,30.06,20,9,34,1.10
2013-4-23,45,34,27,26,22,20,84,65,41,30.44,30.28,14,6,26,0.00
2013-4-24,59,41,24,32,24,19,82,56,25,30.37,30.25,15,5,30,0.00
2013-4-25,73,52,34,37,29,24,71,45,23,30.37,30.04,26,10,44,0.00
2013-4-26,78,61,48,44,34,26,65,39,24,30.31,30.10,20,5,29,0.00
2013-4-27,82,62,44,49,41,32,83,54,17,30.31,30.06,13,3,25,0.00
2013-4-28,88,66,44,44,38,32,72,42,16,30.08,29.88,20,7,29,0.00
2013-4-29,86,67,54,51,42,36,60,42,25,30.01,29.70,13,4,23,0.00
2013-4-30,73,61,51,48,40,27,65,48,31,30.07,29.70,22,9,39,0.00
2013-5-1,53,38,33,36,33,30,90,82,43,30.65,30.06,18,9,37,0.16
2013-5-2,54,42,33,33,30,26,89,66,35,30.76,30.55,15,5,28,0.15
2013-5-3,62,46,30,35,28,24,83,55,28,30.55,30.22,13,4,39,0.00
2013-5-4,63,46,30,32,24,19,68,43,25,30.36,30.24,18,7,31,0.00
2013-5-5,69,50,31,36,27,20,70,43,24,30.39,30.24,10,3,21,0.00
2013-5-6,74,57,42,46,36,26,74,47,32,30.29,30.14,15,4,24,0.00
2013-5-7,69,59,52,56,50,37,88,73,50,30.19,30.02,18,7,30,0.06
2013-5-8,77,62,50,58,51,46,92,70,41,30.12,30.03,13,4,22,0.10
2013-5-9,64,58,51,55,49,44,81,73,62,30.27,30.11,17,5,26,0.00
2013-5-10,72,58,44,51,46,41,89,66,39,30.31,30.21,10,2,17,0.00
2013-5-11,71,60,51,46,38,30,67,46,28,30.50,30.29,13,4,24,0.00
2013-5-12,80,62,44,53,42,31,66,49,31,30.37,30.17,9,3,18,0.00
2013-5-13,93,72,53,54,48,44,75,47,21,30.21,30.06,6,2,12,0.00
2013-5-14,98,78,59,56,48,42,58,37,18,30.06,29.89,9,4,20,0.02
2013-5-15,86,74,63,56,49,40,52,42,33,30.06,29.94,18,8,33,0.00
2013-5-16,84,66,60,60,54,51,82,66,37,30.03,29.93,16,4,37,0.04
2013-5-17,87,72,58,64,57,52,83,63,36,30.04,29.93,17,5,35,0.00
2013-5-18,81,72,64,68,62,50,85,71,54,29.99,29.77,19,6,31,0.00
2013-5-19,73,63,56,56,52,46,89,67,46,29.90,29.81,19,7,44,0.08
2013-5-20,68,60,54,52,48,44,84,67,45,30.00,29.86,22,10,40,0.00
2013-5-21,65,56,50,46,44,42,76,66,47,30.04,29.97,18,8,37,0.00
2013-5-22,76,60,48,52,46,42,82,64,38,30.21,30.04,14,4,26,0.00
2013-5-23,73,60,51,54,48,43,81,66,48,30.33,30.22,13,5,27,0.00
2013-5-24,83,67,57,66,56,49,89,71,46,30.30,30.05,21,9,38,0.29
2013-5-25,93,74,62,66,60,50,90,66,36,30.16,29.96,18,7,49,0.14
2013-5-26,94,78,66,66,60,52,87,59,25,30.05,29.87,16,6,34,0.00
2013-5-27,76,73,69,64,62,61,83,71,60,29.90,29.85,9,3,20,0.00
2013-5-28,85,70,60,66,58,51,86,68,39,29.94,29.75,15,4,28,0.00
2013-5-29,86,67,56,66,58,53,93,75,42,29.80,29.55,24,7,42,0.70
2013-5-30,75,61,51,54,50,45,94,70,37,29.89,29.75,14,4,33,0.02
2013-5-31,78,64,50,49,44,36,83,52,24,30.05,29.89,20,7,39,0.00
2013-6-1,70,60,54,49,45,42,74,59,41,30.29,30.02,19,8,38,0.00
2013-6-2,78,61,47,54,46,39,80,59,40,30.32,30.09,11,3,25,0.00
2013-6-3,90,68,53,60,51,44,74,57,32,30.11,29.81,19,8,44,0.00
2013-6-4,77,69,61,60,57,51,82,65,51,30.21,29.95,11,4,22,0.00
2013-6-5,68,60,52,54,48,44,80,65,52,30.32,30.17,11,4,26,0.03
2013-6-6,78,63,48,54,48,41,83,60,39,30.27,30.14,8,2,12,0.00
2013-6-7,86,69,54,57,51,45,73,56,33,30.21,29.99,11,3,26,0.00
2013-6-8,79,68,62,62,56,50,79,66,44,30.08,29.83,14,4,29,0.00
2013-6-9,86,69,52,56,50,47,83,55,32,30.13,30.03,10,3,22,0.00
2013-6-10,102,79,58,68,56,46,67,49,19,30.08,29.88,16,4,25,0.00
2013-6-11,104,88,73,66,58,49,61,40,19,29.94,29.71,23,5,40,0.00
2013-6-12,92,79,67,65,60,52,81,55,29,30.25,29.78,14,5,27,0.00
2013-6-13,87,72,59,65,56,50,82,60,42,30.30,30.07,16,4,26,0.07
2013-6-14,92,78,63,68,62,49,92,62,34,30.19,29.96,16,6,30,0.26
2013-6-15,89,78,65,67,60,48,72,56,35,30.15,30.03,11,3,20,0.00
2013-6-16,90,73,64,62,59,52,83,64,36,30.21,30.07,11,4,25,0.06
2013-6-17,86,71,58,65,58,54,87,67,38,30.28,30.16,11,2,16,0.00
2013-6-18,88,74,61,64,59,54,88,63,38,30.27,30.09,14,4,23,0.10
2013-6-19,87,75,64,65,60,56,80,60,41,30.16,29.97,22,7,36,0.00
2013-6-20,98,81,68,68,63,55,85,59,30,30.01,29.88,17,8,34,0.09
2013-6-21,99,86,72,67,60,53,58,43,26,29.98,29.85,26,10,47,0.10
2013-6-22,97,81,68,70,63,52,79,56,34,30.01,29.81,20,7,35,0.00
2013-6-23,83,71,60,68,63,57,93,78,56,30.09,29.95,13,4,25,0.96
2013-6-24,93,76,62,72,64,59,91,70,38,30.08,29.83,24,4,40,0.61
2013-6-25,95,81,69,68,61,53,79,54,26,30.00,29.83,23,5,36,0.00
2013-6-26,98,81,66,66,59,55,73,50,29,30.14,30.00,6,1,14,0.00
2013-6-27,93,83,76,72,64,54,68,54,40,30.27,30.08,15,4,26,0.00
2013-6-28,92,80,66,68,61,54,85,56,30,30.31,30.21,13,4,23,0.00
2013-6-29,87,76,64,62,56,49,73,51,38,30.27,30.18,13,4,23,0.00
2013-6-30,84,72,60,58,53,48,71,52,36,30.33,30.24,11,3,18,0.00
2013-7-1,81,70,59,56,51,45,75,53,34,30.42,30.32,8,2,17,0.00
2013-7-2,85,71,56,53,48,44,72,46,27,30.39,30.25,6,1,14,0.00
2013-7-3,89,74,60,54,48,44,61,41,24,30.28,30.06,13,4,22,0.00
2013-7-4,94,78,64,57,50,46,59,40,25,30.11,29.98,14,5,27,0.00
2013-7-5,95,81,71,63,55,48,66,42,28,30.02,29.88,17,7,34,0.00
2013-7-6,101,85,71,64,60,55,62,45,28,29.98,29.90,13,5,33,0.08
2013-7-7,96,85,74,71,63,59,78,49,35,30.21,29.98,18,4,37,0.00
2013-7-8,99,81,69,71,66,62,89,65,33,30.20,30.01,15,3,47,0.06
2013-7-9,98,82,67,74,67,61,89,64,35,30.22,30.07,10,2,25,0.37
2013-7-10,87,78,71,68,65,59,79,66,39,30.33,30.16,13,4,28,0.14
2013-7-11,92,79,66,72,67,63,91,70,44,30.26,30.05,14,5,27,0.57
2013-7-12,102,85,72,70,64,60,71,52,29,30.10,29.97,14,6,27,0.00
2013-7-13,103,89,76,67,62,57,62,42,26,30.10,29.98,12,4,24,0.00
2013-7-14,88,79,72,71,66,57,87,66,36,30.30,30.04,15,2,27,0.27
2013-7-15,87,76,67,65,60,54,86,62,34,30.36,30.25,11,3,23,0.00
2013-7-16,84,74,66,65,62,59,84,67,48,30.42,30.32,18,7,30,0.00
2013-7-17,89,76,63,66,61,58,86,63,40,30.47,30.31,18,8,30,0.00
2013-7-18,95,81,68,66,63,61,84,58,35,30.34,30.09,19,9,34,0.00
2013-7-19,93,80,71,70,64,59,75,61,44,30.18,30.12,12,4,24,0.00
2013-7-20,93,78,66,69,65,60,85,66,41,30.18,30.04,23,3,41,0.00
2013-7-21,94,76,61,67,61,56,84,62,37,30.18,29.98,16,4,43,0.02
2013-7-22,95,81,68,69,62,56,82,54,37,30.07,29.98,12,4,25,0.00
2013-7-23,93,79,67,67,62,55,78,57,35,30.21,30.04,15,5,36,0.00
2013-7-24,91,77,65,67,62,57,87,63,34,30.31,30.16,10,1,26,0.00
2013-7-25,80,72,64,69,64,58,90,76,59,30.28,30.16,14,3,25,0.10
2013-7-26,84,73,63,65,61,55,89,70,45,30.37,30.25,10,3,21,0.00
2013-7-27,71,64,59,58,54,51,81,70,59,30.32,30.20,13,4,31,0.00
2013-7-28,63,60,58,59,55,51,93,84,67,30.24,30.14,9,3,17,0.12
2013-7-29,71,65,60,67,62,58,95,91,81,30.21,30.11,9,1,14,0.06
2013-7-30,86,74,65,71,65,62,92,76,50,30.30,30.21,7,1,16,0.00
2013-7-31,86,74,66,71,66,62,90,75,53,30.41,30.26,14,3,23,0.04
2013-8-1,94,80,68,69,65,62,82,63,42,30.32,29.99,18,5,29,0.00
2013-8-2,91,76,65,69,64,58,82,67,46,30.18,30.06,13,5,45,0.00
2013-8-3,75,72,69,67,64,62,87,78,67,30.33,30.18,12,4,32,0.00
2013-8-4,84,74,66,70,65,60,84,74,57,30.31,30.14,9,3,17,0.00
2013-8-5,89,78,70,75,70,65,92,79,58,30.19,30.03,13,3,26,0.00
2013-8-6,94,80,70,72,69,66,93,73,42,30.10,30.02,12,2,25,0.00
2013-8-7,79,70,62,70,63,59,93,79,59,30.22,30.11,26,3,52,0.66
2013-8-8,76,68,62,65,62,60,95,83,63,30.25,30.16,6,1,14,0.24
2013-8-9,86,72,61,64,60,58,91,70,43,30.34,30.24,6,1,11,0.00
2013-8-10,86,72,62,63,59,55,84,64,42,30.36,30.25,16,5,25,0.00
2013-8-11,83,73,65,69,64,60,89,74,60,30.29,30.17,9,3,20,0.04
2013-8-12,86,72,63,69,64,60,89,76,55,30.27,30.18,8,2,16,0.02
2013-8-13,82,73,65,66,63,60,88,73,56,30.36,30.25,12,3,27,0.11
2013-8-14,83,71,64,67,62,58,87,74,56,30.33,30.17,10,4,24,0.00
2013-8-15,88,73,64,64,60,55,87,66,34,30.26,30.14,10,3,27,0.00
2013-8-16,84,71,66,68,64,62,86,79,55,30.30,30.24,12,4,15,0.00
2013-8-17,76,71,68,66,64,62,88,79,71,30.30,30.20,10,4,18,0.00
2013-8-18,84,72,65,68,63,60,87,74,55,30.25,30.15,12,5,23,0.00
2013-8-19,94,77,66,71,65,61,87,68,40,30.22,30.10,10,4,20,0.00
2013-8-20,97,80,66,69,64,60,84,61,36,30.14,30.07,16,6,27,0.00
2013-8-21,100,83,71,69,64,61,75,55,33,30.14,30.04,16,7,31,0.02
2013-8-22,89,79,72,69,64,59,77,60,48,30.21,30.11,13,4,23,0.00
2013-8-23,94,79,69,69,65,59,82,64,40,30.21,30.05,14,4,22,0.00
2013-8-24,98,84,69,64,60,58,70,48,30,30.16,30.08,24,11,36,0.00
2013-8-25,100,85,73,64,61,58,67,47,26,30.23,30.15,21,11,38,0.00
2013-8-26,102,86,74,65,61,59,64,46,26,30.22,30.11,20,11,32,0.00
2013-8-27,102,85,72,65,60,56,63,44,26,30.16,30.08,16,6,25,0.00
2013-8-28,98,82,69,66,60,56,68,49,28,30.19,30.12,9,2,18,0.00
2013-8-29,103,85,71,67,61,53,73,49,24,30.18,30.07,10,2,16,0.00
2013-8-30,100,83,69,71,63,56,83,54,33,30.18,30.06,17,4,38,0.12
2013-8-31,93,78,67,71,65,60,88,65,43,30.24,30.00,14,3,29,0.18
2013-9-1,87,77,69,63,57,50,74,52,29,30.27,30.09,14,3,27,0.00
2013-9-2,93,76,60,60,55,51,74,51,31,30.29,30.16,9,2,19,0.00
2013-9-3,97,80,68,63,57,52,66,47,31,30.24,30.11,17,6,29,0.00
2013-9-4,101,83,68,64,58,55,64,45,25,30.26,30.16,16,5,24,0.00
2013-9-5,97,82,72,63,57,53,56,43,29,30.30,30.18,14,4,27,0.00
2013-9-6,105,84,68,61,53,49,55,37,20,30.22,30.07,16,5,27,0.00
2013-9-7,105,85,70,66,54,49,61,37,20,30.16,30.06,14,2,17,0.00
2013-9-8,102,84,70,68,61,51,81,52,23,30.11,29.96,18,5,29,0.00
2013-9-9,99,85,74,60,56,52,50,38,24,30.03,29.93,16,7,30,0.00
2013-9-10,91,79,69,67,62,55,83,58,40,30.25,30.02,12,4,19,0.06
2013-9-11,82,72,66,69,65,62,95,81,63,30.34,30.23,11,3,22,0.47
2013-9-12,71,67,65,67,65,62,96,92,79,30.40,30.33,9,2,21,0.10
2013-9-13,65,61,56,63,56,53,94,83,75,30.37,30.19,11,4,21,0.19
2013-9-14,81,68,59,67,59,53,82,76,60,30.20,30.00,16,5,25,0.00
2013-9-15,71,63,61,65,59,56,94,87,79,30.39,30.04,16,3,28,0.24
2013-9-16,61,58,57,56,54,52,91,85,82,30.42,30.29,10,3,18,0.00
2013-9-17,88,69,57,69,61,54,95,79,48,30.29,29.96,13,4,22,0.00
2013-9-18,95,77,65,68,63,56,87,65,35,29.98,29.84,17,5,26,0.00
2013-9-19,74,65,58,60,54,48,90,69,54,30.28,29.93,15,4,36,0.08
2013-9-20,78,62,49,55,48,43,80,63,38,30.32,30.16,8,2,12,0.00
2013-9-21,70,58,55,56,47,45,76,69,56,30.18,30.13,8,2,22,0.00
2013-9-25,86,72,54,56,52,47,80,52,33,30.04,29.73,21,9,36,0.00
2013-9-26,89,72,60,58,52,48,67,50,33,29.85,29.73,17,4,33,0.00
2013-9-27,74,65,49,62,55,47,93,71,54,30.03,29.81,18,6,36,0.76
2013-9-28,70,55,44,47,42,36,93,66,30,30.24,30.04,11,3,23,0.00
2013-9-29,82,62,45,48,42,38,78,54,27,30.24,29.99,15,5,30,0.00
2013-9-30,86,67,51,57,48,43,79,55,25,30.02,29.89,13,3,23,0.00
2013-10-1,79,65,54,52,47,40,79,54,36,30.18,29.94,10,2,20,0.00
2013-10-2,83,67,56,66,55,47,84,68,50,30.10,29.97,8,1,19,0.00
2013-10-3,69,62,59,63,55,47,91,78,56,29.98,29.87,13,3,22,0.00
2013-10-4,61,54,39,58,46,29,92,76,49,30.21,29.80,22,8,46,0.00
2013-10-5,51,44,37,31,29,27,72,58,42,30.23,30.16,22,11,41,0.00
2013-10-6,71,53,39,39,33,28,67,49,30,30.29,30.19,17,7,36,0.00
2013-10-7,83,60,40,47,40,35,82,53,24,30.28,30.09,18,3,24,0.00
2013-10-8,84,65,50,43,40,37,65,43,20,30.09,29.89,21,7,37,0.00
2013-10-9,73,60,53,46,42,40,65,53,39,30.01,29.92,13,4,26,0.00
2013-10-10,84,66,52,55,50,43,92,59,29,30.01,29.72,24,5,45,0.45
2013-10-11,66,56,47,52,44,39,92,64,44,30.19,29.74,18,7,38,0.00
2013-10-12,60,52,46,41,38,35,72,60,41,30.39,30.18,8,1,16,0.00
2013-10-13,67,55,44,50,39,33,72,55,36,30.46,30.24,18,5,35,0.00
2013-10-14,73,58,44,61,50,34,93,77,42,30.24,29.82,25,9,47,0.20
2013-10-15,51,43,37,35,32,29,74,65,53,30.35,30.17,16,7,34,0.00
2013-10-16,36,33,31,29,27,26,82,79,74,30.35,30.30,4,1,10,0.00
2013-10-17,58,44,32,38,32,27,82,66,45,30.26,30.11,13,3,21,0.00
2013-10-18,53,42,35,37,31,25,89,68,43,30.30,30.20,10,2,23,0.02
2013-10-19,69,47,30,38,30,24,86,58,27,30.23,30.02,11,3,26,0.00
2013-10-20,61,48,38,40,35,30,76,61,41,30.24,29.96,11,2,31,0.00
2013-10-21,64,47,32,38,33,28,87,61,35,30.27,30.14,11,3,28,0.00
2013-10-22,67,55,48,43,39,36,68,55,40,30.26,30.16,15,2,28,0.00
2013-10-23,70,53,38,44,37,32,83,58,34,30.37,30.19,18,2,26,0.00
2013-10-24,49,44,39,39,35,32,79,71,62,30.52,30.37,6,0,8,0.00
2013-10-25,64,48,36,43,36,30,80,65,44,30.47,30.19,17,4,27,0.00
2013-10-26,68,51,40,39,34,31,80,57,31,30.44,30.22,10,1,18,0.00
2013-10-27,81,57,39,48,37,30,76,51,24,30.27,29.96,9,1,18,0.00
2013-10-28,57,45,40,38,36,32,86,70,49,30.23,30.00,16,7,28,0.00
2013-10-29,41,40,38,38,37,35,92,91,86,30.20,30.11,9,3,17,0.14
2013-10-30,59,44,38,44,38,34,91,79,54,30.16,29.94,7,1,16,0.00
2013-10-31,63,47,34,37,32,29,84,60,30,29.94,29.83,20,5,40,0.00
2013-11-1,60,48,38,37,31,22,77,52,29,30.31,29.92,19,7,38,0.00
2013-11-2,65,45,28,33,26,21,75,52,27,30.39,30.03,15,6,27,0.00
2013-11-3,71,51,40,39,32,29,67,51,30,30.03,29.69,17,5,26,0.00
2013-11-4,57,46,38,37,32,27,80,60,41,30.23,29.81,15,4,29,0.00
2013-11-5,39,36,32,37,32,28,92,86,65,30.30,30.08,15,5,29,0.49
2013-11-6,53,37,24,34,28,20,90,72,42,30.45,30.28,9,2,20,0.00
2013-11-7,34,32,30,28,26,25,82,78,75,30.50,30.45,7,2,14,0.00
2013-11-8,70,50,34,39,34,28,81,57,29,30.26,29.91,9,2,19,0.00
2013-11-9,66,47,34,40,32,26,80,59,36,30.45,30.14,6,1,12,0.00
2013-11-10,62,46,36,46,36,28,85,70,55,30.46,30.28,13,3,23,0.00
2013-11-11,44,35,28,40,28,19,89,77,63,30.83,30.24,13,3,28,0.00
2013-11-12,50,34,20,32,23,13,77,66,49,30.87,30.55,14,4,19,0.00
2013-11-13,73,47,31,40,32,26,81,59,28,30.55,30.07,11,3,20,0.00
2013-11-14,65,50,40,44,36,30,72,61,42,30.18,30.03,13,2,31,0.00
2013-11-15,66,48,38,40,35,31,80,63,37,30.05,29.63,17,4,30,0.00
2013-11-16,66,47,34,36,32,27,79,58,32,29.63,29.54,11,3,18,0.00
2013-11-17,55,46,32,36,22,12,64,41,24,30.26,29.60,32,9,49,0.00
2013-11-18,63,42,25,24,19,13,66,43,21,30.34,30.21,14,4,27,0.00
2013-11-19,58,44,32,33,26,19,63,50,39,30.22,29.89,20,5,30,0.00
2013-11-20,68,49,35,37,30,26,74,51,27,30.13,29.90,12,2,23,0.00
2013-11-21,43,23,18,30,14,10,81,69,61,30.74,30.14,18,9,38,0.00
2013-11-22,35,24,16,18,13,8,75,63,45,30.77,30.68,6,1,14,0.00
2013-11-23,37,26,20,20,15,12,73,63,49,30.87,30.67,5,1,9,0.00
2013-11-24,39,29,20,28,22,13,80,73,60,30.67,30.20,19,6,32,0.00
2013-11-25,48,33,21,29,21,16,90,65,37,30.41,30.19,13,2,23,0.00
2013-11-26,42,30,21,23,17,11,80,60,41,30.53,30.41,13,2,23,0.00
2013-11-27,65,38,19,30,20,10,79,53,25,30.51,30.11,10,2,20,0.00
2013-11-28,38,34,30,24,22,20,65,60,57,30.36,30.24,5,0,5,0.00
2013-11-29,51,33,22,33,24,17,81,70,49,30.47,30.21,9,2,12,0.00
2013-11-30,65,40,25,33,25,20,84,59,29,30.29,30.21,10,3,17,0.00
2013-12-1,62,40,23,36,26,17,82,60,33,30.27,29.96,12,1,20,0.00
2013-12-2,66,48,35,34,28,24,63,48,28,29.97,29.72,14,4,21,0.00
2013-12-3,49,38,24,35,26,16,78,64,51,29.93,29.69,16,4,31,0.00
2013-12-4,24,18,12,16,6,-1,80,59,43,30.29,29.90,20,8,34,0.00
2013-12-5,26,12,2,4,-4,-8,65,51,35,30.47,30.29,11,2,20,0.00
2013-12-6,24,10,3,1,-6,-10,57,48,36,30.65,30.47,6,1,12,0.00
2013-12-7,5,5,5,-9,-9,-9,52,52,52,30.65,30.65,1,0,1,0.00
2013-12-8,14,10,3,9,4,-6,79,75,66,30.30,30.07,11,2,16,0.00
2013-12-9,24,9,-6,9,-1,-13,80,66,48,30.39,30.24,16,3,27,0.00
2013-12-10,38,22,10,23,11,1,74,64,50,30.41,30.14,12,3,19,0.00
2013-12-11,34,22,13,20,14,8,79,71,58,30.67,30.42,12,3,21,0.00
2013-12-12,52,29,14,30,18,8,82,66,42,30.49,30.12,9,2,15,0.00
2013-12-13,47,28,17,30,19,11,82,70,47,30.24,29.96,7,1,11,0.00
2013-12-14,51,32,18,30,20,13,86,65,38,30.35,30.25,14,2,21,0.00
2013-12-15,59,39,26,28,22,17,71,52,30,30.28,30.14,18,5,28,0.00
2013-12-16,64,42,26,28,22,18,71,48,23,30.34,30.16,11,3,18,0.00
2013-12-17,57,39,25,28,22,17,73,53,31,30.49,30.18,9,2,18,0.00
2013-12-18,72,46,30,32,22,17,62,41,20,30.18,29.88,8,1,18,0.00
2013-12-19,44,33,15,29,22,7,74,63,47,30.10,29.82,18,6,64,0.00
2013-12-20,28,20,14,12,7,4,71,58,49,30.12,29.94,17,3,30,0.00
2013-12-21,40,23,13,21,11,4,73,60,43,30.05,29.82,6,1,11,0.00
2013-12-22,42,26,16,20,14,9,79,62,39,30.44,30.05,14,2,21,0.00
2013-12-23,26,18,15,15,10,4,79,70,57,30.61,30.35,10,2,16,0.00
2013-12-24,38,27,16,33,21,10,85,77,62,30.41,30.14,6,1,17,0.04
2013-12-25,46,32,22,29,22,17,87,70,44,30.51,30.37,10,4,20,0.00
2013-12-26,57,36,22,27,20,14,75,56,28,30.40,30.27,9,3,16,0.00
2013-12-27,64,40,24,31,22,16,72,52,27,30.40,30.20,7,1,12,0.00
2013-12-28,62,36,17,31,20,6,65,54,29,30.37,29.93,21,5,38,0.00
2013-12-29,33,18,10,9,4,0,68,55,36,30.50,30.19,19,5,33,0.00
2013-12-30,52,34,20,28,19,8,72,54,32,30.35,30.13,16,3,31,0.00
2013-12-31,60,37,25,30,21,14,68,53,30,30.34,30.08,10,2,26,0.00
2014-1-1,29,24,20,19,16,13,80,72,65,30.47,30.11,12,3,23,0.00
2014-1-2,49,29,19,29,20,14,86,72,45,30.46,30.28,10,2,16,0.00